This is the latest recevied weather packets stored in our database for station/object DG4DAZ-6. If no packets are shown the sender has not sent any weather packets the latest 10 day(s).
| Time | Temp. | Humidity | Pressure | Rain* | Wind** | Luminosity | Snow |
|---|---|---|---|---|---|---|---|
| 1777882883 | 15.56° C | 74% | 1012.3 hPa | 0 mm | - | 355 W/m² | - |
| 1777882283 | 16.11° C | 73% | 1012.3 hPa | 0 mm | - | 362 W/m² | - |
| 1777881684 | 15.56° C | 73% | 1012.3 hPa | 0 mm | - | 553 W/m² | - |
| 1777881083 | 15° C | 76% | 1012.3 hPa | 0 mm | - | 293 W/m² | - |
| 1777880483 | 14.44° C | 80% | 1012.4 hPa | 0 mm | - | 434 W/m² | - |
| 1777879883 | 13.89° C | 79% | 1012.4 hPa | 0 mm | - | 120 W/m² | - |
| 1777879282 | 13.89° C | 78% | 1012.3 hPa | 0 mm | - | 158 W/m² | - |
| 1777878684 | 13.89° C | 79% | 1012.2 hPa | 0 mm | - | 132 W/m² | - |
| 1777878084 | 13.89° C | 80% | 1012.1 hPa | 0 mm | - | 182 W/m² | - |
| 1777877483 | 13.89° C | 80% | 1012.1 hPa | 0 mm | - | 302 W/m² | - |
| 1777876883 | 13.33° C | 81% | 1012 hPa | 0 mm | - | 209 W/m² | - |
| 1777876283 | 13.33° C | 81% | 1011.9 hPa | 0 mm | - | 95 W/m² | - |
| 1777875682 | 13.33° C | 81% | 1012 hPa | 0 mm | - | 125 W/m² | - |
| 1777875084 | 13.33° C | 81% | 1011.9 hPa | 0 mm | - | 153 W/m² | - |
| 1777874483 | 13.33° C | 80% | 1011.9 hPa | 0 mm | - | 139 W/m² | - |
| 1777873882 | 12.78° C | 82% | 1011.9 hPa | 0 mm | - | 176 W/m² | - |
| 1777873284 | 12.22° C | 84% | 1011.6 hPa | 0 mm | - | 131 W/m² | - |
| 1777872684 | 11.67° C | 85% | 1011.6 hPa | 0 mm | - | 98 W/m² | - |
| 1777872083 | 11.11° C | 87% | 1011.5 hPa | 0 mm | - | 97 W/m² | - |
| 1777871483 | 11.11° C | 87% | 1011.6 hPa | 0 mm | - | 48 W/m² | - |
| 1777870884 | 10.56° C | 87% | 1011.5 hPa | 0 mm | - | 38 W/m² | - |
| 1777870283 | 10.56° C | 87% | 1011.4 hPa | 0 mm | - | 26 W/m² | - |
| 1777869683 | 10.56° C | 87% | 1011.4 hPa | 0 mm | - | 21 W/m² | - |
| 1777869084 | 10.56° C | 88% | 1011.4 hPa | 0 mm | - | 19 W/m² | - |
| 1777868483 | 10.56° C | 88% | 1011.3 hPa | 0 mm | - | 11 W/m² | - |
* Rain latest hour (hover to see other rain measurements)
** Current wind speed in m/s (hover to see current wind gust speed)